| time (UTC) | temp F | wind direction | speed knots | gust knots | rain 1hr in | rain 24hr in | rain mn in | humidity % | barometer mb |
| 20260507105155 | 50 | 173 | 0.0 | 0.9 | 0.00 | 0.00 | 0.00 | 83 | 1019.4 |
| 20260507104653 | 50 | 186 | 0.9 | 1.7 | 0.00 | 0.00 | 0.00 | 82 | 1019.4 |
| 20260507104149 | 50 | 185 | 2.6 | 2.6 | 0.00 | 0.00 | 0.00 | 83 | 1019.6 |
| 20260507103645 | 50 | 179 | 0.9 | 0.9 | 0.00 | 0.00 | 0.00 | 81 | 1019.4 |
| 20260507103142 | 50 | 185 | 0.0 | 0.9 | 0.00 | 0.00 | 0.00 | 82 | 1019.5 |
| 20260507102638 | 50 | 145 | 0.9 | 0.9 | 0.00 | 0.00 | 0.00 | 81 | 1019.6 |
| 20260507102134 | 50 | 183 | 0.9 | 0.9 | 0.00 | 0.00 | 0.00 | 81 | 1019.7 |
| 20260507101630 | 50 | 136 | 0.9 | 0.9 | 0.00 | 0.00 | 0.00 | 81 | 1019.6 |
| 20260507101126 | 50 | 157 | 0.9 | 0.9 | 0.00 | 0.00 | 0.00 | 81 | 1019.5 |
| 20260507100624 | 51 | 181 | 0.0 | 0.9 | 0.00 | 0.00 | 0.00 | 80 | 1019.5 |
| 20260507100122 | 50 | 144 | 0.9 | 1.7 | 0.00 | 0.00 | 0.00 | 81 | 1019.7 |
| 20260507095620 | 50 | 128 | 1.7 | 1.7 | 0.00 | 0.00 | 0.00 | 81 | 1019.5 |
| 20260507095116 | 50 | 204 | 0.9 | 0.9 | 0.00 | 0.00 | 0.00 | 81 | 1019.5 |
| 20260507094612 | 50 | 184 | 2.6 | 2.6 | 0.00 | 0.00 | 0.00 | 82 | 1019.3 |
| 20260507094109 | 50 | 180 | 0.9 | 0.9 | 0.00 | 0.00 | 0.00 | 83 | 1019.3 |
| 20260507093607 | 51 | 153 | 0.9 | 1.7 | 0.00 | 0.00 | 0.00 | 81 | 1019.4 |
| 20260507093105 | 50 | 158 | 0.9 | 1.7 | 0.00 | 0.00 | 0.00 | 82 | 1019.4 |
| 20260507092601 | 50 | 180 | 1.7 | 1.7 | 0.00 | 0.00 | 0.00 | 84 | 1019.5 |
| 20260507092057 | 50 | 165 | 0.9 | 0.9 | 0.00 | 0.00 | 0.00 | 82 | 1019.5 |
| 20260507091554 | 50 | 146 | 0.9 | 0.9 | 0.00 | 0.00 | 0.00 | 84 | 1019.5 |
| 20260507091050 | 50 | 121 | 1.7 | 2.6 | 0.00 | 0.00 | 0.00 | 85 | 1019.5 |
| 20260507090546 | 49 | 166 | 1.7 | 1.7 | 0.00 | 0.00 | 0.00 | 86 | 1019.5 |
| 20260507090038 | 50 | 181 | 0.9 | 1.7 | 0.00 | 0.00 | 0.00 | 85 | 1019.3 |
| 20260507085535 | 51 | 166 | 0.0 | 0.9 | 0.00 | 0.00 | 0.00 | 82 | 1019.4 |
| 20260507085032 | 51 | 154 | 0.9 | 1.7 | 0.00 | 0.00 | 0.00 | 81 | 1019.3 |
| 20260507084528 | 51 | 157 | 1.7 | 1.7 | 0.00 | 0.00 | 0.00 | 80 | 1019.6 |
| 20260507084026 | 52 | 175 | 0.9 | 0.9 | 0.00 | 0.00 | 0.00 | 80 | 1019.6 |
| 20260507083521 | 52 | 173 | 0.9 | 0.9 | 0.00 | 0.00 | 0.00 | 81 | 1019.3 |
| 20260507083019 | 52 | 113 | 2.6 | 2.6 | 0.00 | 0.00 | 0.00 | 80 | 1019.7 |
| 20260507082515 | 53 | 108 | 0.9 | 0.9 | 0.00 | 0.00 | 0.00 | 79 | 1019.6 |
| 20260507082011 | 53 | 131 | 0.9 | 0.9 | 0.00 | 0.00 | 0.00 | 81 | 1019.4 |
| 20260507081508 | 53 | 158 | 0.9 | 0.9 | 0.00 | 0.00 | 0.00 | 81 | 1019.5 |
| 20260507081005 | 53 | 178 | 0.9 | 0.9 | 0.00 | 0.00 | 0.00 | 81 | 1019.5 |
| 20260507080500 | 53 | 207 | 0.9 | 0.9 | 0.00 | 0.00 | 0.00 | 81 | 1019.6 |
| 20260507075956 | 53 | 173 | 0.0 | 0.9 | 0.00 | 0.00 | 0.00 | 81 | 1019.6 |
| 20260507075452 | 53 | 144 | 1.7 | 1.7 | 0.00 | 0.00 | 0.00 | 81 | 1019.6 |
| 20260507074949 | 53 | 161 | 0.0 | 0.0 | 0.00 | 0.00 | 0.00 | 82 | 1019.6 |
| 20260507074446 | 53 | 195 | 0.9 | 0.9 | 0.00 | 0.00 | 0.00 | 82 | 1019.7 |
| 20260507073944 | 53 | 162 | 0.9 | 0.9 | 0.00 | 0.00 | 0.00 | 82 | 1019.5 |
| 20260507073440 | 53 | 196 | 0.0 | 0.9 | 0.00 | 0.00 | 0.00 | 82 | 1019.5 |
| 20260507072937 | 53 | 212 | 0.0 | 0.0 | 0.00 | 0.00 | 0.00 | 82 | 1019.5 |
| 20260507072434 | 53 | 163 | 0.0 | 0.0 | 0.00 | 0.00 | 0.00 | 82 | 1019.5 |
| 20260507071932 | 53 | 190 | 0.9 | 0.9 | 0.00 | 0.00 | 0.00 | 82 | 1019.5 |
| 20260507071428 | 53 | 147 | 0.0 | 0.0 | 0.00 | 0.00 | 0.00 | 82 | 1019.6 |
| 20260507070925 | 53 | 158 | 0.9 | 0.9 | 0.00 | 0.00 | 0.00 | 81 | 1019.3 |
| 20260507070423 | 53 | 231 | 0.9 | 0.9 | 0.00 | 0.00 | 0.00 | 81 | 1019.6 |
| 20260507065919 | 53 | 141 | 0.0 | 0.9 | 0.00 | 0.00 | 0.00 | 82 | 1019.5 |
| 20260507065416 | 53 | 152 | 1.7 | 1.7 | 0.00 | 0.00 | 0.00 | 82 | 1019.8 |
| 20260507064913 | 53 | 162 | 0.0 | 0.0 | 0.00 | 0.00 | 0.00 | 83 | 1019.6 |
| 20260507064411 | 53 | 147 | 0.0 | 0.0 | 0.00 | 0.00 | 0.00 | 83 | 1019.5 |
| 20260507063909 | 53 | 150 | 0.0 | 0.0 | 0.00 | 0.00 | 0.00 | 83 | 1019.7 |
| 20260507063405 | 54 | 197 | 0.9 | 0.9 | 0.00 | 0.00 | 0.00 | 83 | 1019.5 |
| 20260507062857 | 54 | 187 | 0.9 | 0.9 | 0.00 | 0.00 | 0.00 | 83 | 1019.4 |
| 20260507062353 | 54 | 147 | 0.0 | 0.0 | 0.00 | 0.00 | 0.00 | 83 | 1019.4 |
| 20260507061851 | 54 | 212 | 3.5 | 4.3 | 0.00 | 0.00 | 0.00 | 83 | 1019.4 |
| 20260507061349 | 54 | 144 | 0.0 | 0.9 | 0.00 | 0.00 | 0.00 | 83 | 1019.4 |
| 20260507060847 | 54 | 117 | 0.9 | 0.9 | 0.00 | 0.00 | 0.00 | 83 | 1019.4 |
| 20260507060343 | 54 | 174 | 0.9 | 0.9 | 0.00 | 0.00 | 0.00 | 83 | 1019.3 |
| 20260507055840 | 54 | 161 | 0.9 | 1.7 | 0.00 | 0.00 | 0.00 | 83 | 1019.5 |
| 20260507055335 | 54 | 249 | 3.5 | 4.3 | 0.00 | 0.00 | 0.00 | 83 | 1019.3 |
| 20260507054832 | 54 | 174 | 0.0 | 0.9 | 0.00 | 0.00 | 0.00 | 83 | 1019.6 |
| 20260507054328 | 54 | 181 | 0.9 | 0.9 | 0.00 | 0.00 | 0.00 | 82 | 1019.6 |
| 20260507053825 | 55 | 178 | 0.9 | 0.9 | 0.00 | 0.00 | 0.00 | 82 | 1019.6 |
| 20260507053324 | 55 | 152 | 0.0 | 0.0 | 0.00 | 0.00 | 0.00 | 81 | 1019.7 |
| 20260507052822 | 55 | 142 | 0.9 | 0.9 | 0.00 | 0.00 | 0.00 | 81 | 1019.5 |
| 20260507052318 | 55 | 160 | 0.9 | 1.7 | 0.00 | 0.00 | 0.00 | 80 | 1019.5 |
| 20260507051816 | 55 | 213 | 0.9 | 0.9 | 0.00 | 0.00 | 0.00 | 80 | 1019.4 |
| 20260507051313 | 55 | 264 | 2.6 | 4.3 | 0.00 | 0.00 | 0.00 | 80 | 1019.4 |
| 20260507050810 | 55 | 163 | 1.7 | 1.7 | 0.00 | 0.00 | 0.00 | 80 | 1019.3 |
| 20260507050306 | 55 | 128 | 0.9 | 1.7 | 0.00 | 0.00 | 0.00 | 80 | 1019.6 |
| 20260507045803 | 55 | 152 | 2.6 | 4.3 | 0.00 | 0.00 | 0.00 | 80 | 1019.4 |
| 20260507045300 | 55 | 267 | 2.6 | 4.3 | 0.00 | 0.00 | 0.00 | 80 | 1019.4 |
| 20260507044757 | 55 | 147 | 3.5 | 5.2 | 0.00 | 0.00 | 0.00 | 80 | 1019.4 |
| 20260507044253 | 55 | 240 | 1.7 | 1.7 | 0.00 | 0.00 | 0.00 | 80 | 1019.4 |
| 20260507043749 | 56 | 165 | 0.9 | 0.9 | 0.00 | 0.00 | 0.00 | 81 | 1019.3 |
| 20260507043246 | 56 | 191 | 0.0 | 0.9 | 0.00 | 0.00 | 0.00 | 80 | 1019.4 |
| 20260507042743 | 56 | 162 | 0.0 | 0.0 | 0.00 | 0.00 | 0.00 | 80 | 1019.3 |
| 20260507042237 | 56 | 170 | 0.0 | 0.9 | 0.00 | 0.00 | 0.00 | 80 | 1019.5 |
| 20260507041736 | 56 | 166 | 0.9 | 0.9 | 0.00 | 0.00 | 0.00 | 80 | 1019.3 |
| 20260507041232 | 56 | 148 | 0.0 | 0.0 | 0.00 | 0.00 | 0.00 | 80 | 1019.5 |
| 20260507040729 | 56 | 139 | 0.0 | 0.0 | 0.00 | 0.00 | 0.00 | 79 | 1019.1 |
| 20260507040225 | 56 | 176 | 0.0 | 0.9 | 0.00 | 0.00 | 0.00 | 79 | 1019.2 |
| 20260507035721 | 56 | 142 | 0.0 | 0.0 | 0.00 | 0.00 | 0.00 | 79 | 1019.3 |
| 20260507035216 | 56 | 135 | 0.0 | 0.9 | 0.00 | 0.00 | 0.00 | 78 | 1019.1 |
| 20260507034714 | 56 | 195 | 0.0 | 0.9 | 0.00 | 0.00 | 0.00 | 78 | 1019.2 |
| 20260507034211 | 56 | 182 | 0.0 | 0.9 | 0.00 | 0.00 | 0.00 | 78 | 1019.2 |
| 20260507033709 | 56 | 271 | 0.9 | 0.9 | 0.00 | 0.00 | 0.00 | 78 | 1019.0 |
| 20260507033206 | 57 | 141 | 0.0 | 0.0 | 0.00 | 0.00 | 0.00 | 78 | 1019.1 |
| 20260507032704 | 57 | 222 | 1.7 | 1.7 | 0.00 | 0.00 | 0.00 | 77 | 1019.0 |
| 20260507032159 | 57 | 117 | 0.9 | 0.9 | 0.00 | 0.00 | 0.00 | 77 | 1018.9 |
| 20260507031657 | 57 | 153 | 0.0 | 0.0 | 0.00 | 0.00 | 0.00 | 77 | 1018.9 |
| 20260507031153 | 57 | 149 | 0.0 | 0.0 | 0.00 | 0.00 | 0.00 | 77 | 1018.9 |
| 20260507030650 | 57 | 141 | 0.0 | 0.0 | 0.00 | 0.00 | 0.00 | 77 | 1018.9 |
| 20260507030148 | 57 | 123 | 0.0 | 0.0 | 0.00 | 0.00 | 0.00 | 77 | 1018.8 |
| 20260507025644 | 58 | 182 | 0.9 | 1.7 | 0.00 | 0.00 | 0.00 | 76 | 1018.8 |
| 20260507025142 | 58 | 146 | 0.0 | 0.0 | 0.00 | 0.00 | 0.00 | 76 | 1018.7 |
| 20260507024639 | 58 | 140 | 0.0 | 0.0 | 0.00 | 0.00 | 0.00 | 76 | 1018.6 |
| 20260507024136 | 58 | 119 | 0.0 | 0.0 | 0.00 | 0.00 | 0.00 | 76 | 1018.7 |
| 20260507023632 | 58 | 150 | 0.0 | 0.0 | 0.00 | 0.00 | 0.00 | 76 | 1018.9 |
| 20260507023130 | 58 | 87 | 0.9 | 0.9 | 0.00 | 0.00 | 0.00 | 75 | 1018.7 |
| 20260507022626 | 58 | 178 | 0.9 | 0.9 | 0.00 | 0.00 | 0.00 | 76 | 1018.5 |
| 20260507022121 | 58 | 129 | 0.0 | 0.9 | 0.00 | 0.00 | 0.00 | 76 | 1018.7 |
| 20260507021618 | 58 | 129 | 0.0 | 0.0 | 0.00 | 0.00 | 0.00 | 76 | 1018.6 |
| 20260507021114 | 58 | 218 | 0.9 | 1.7 | 0.00 | 0.00 | 0.00 | 76 | 1018.7 |
| 20260507020613 | 58 | 136 | 0.0 | 0.0 | 0.00 | 0.00 | 0.00 | 76 | 1018.7 |
| 20260507020109 | 58 | 160 | 0.0 | 0.0 | 0.00 | 0.00 | 0.00 | 75 | 1018.3 |
| 20260507015608 | 59 | 154 | 0.0 | 0.0 | 0.00 | 0.00 | 0.00 | 75 | 1018.7 |
| 20260507015105 | 59 | 132 | 0.0 | 0.0 | 0.00 | 0.00 | 0.00 | 75 | 1018.5 |
| 20260507014602 | 59 | 103 | 0.9 | 0.9 | 0.00 | 0.00 | 0.00 | 74 | 1018.6 |
| 20260507014057 | 59 | 143 | 0.9 | 0.9 | 0.00 | 0.00 | 0.00 | 74 | 1018.5 |
| 20260507013554 | 60 | 112 | 0.0 | 0.0 | 0.00 | 0.00 | 0.00 | 73 | 1018.6 |
| 20260507013051 | 60 | 196 | 0.0 | 0.9 | 0.00 | 0.00 | 0.00 | 71 | 1018.3 |
| 20260507012548 | 60 | 200 | 0.9 | 1.7 | 0.00 | 0.00 | 0.00 | 71 | 1018.4 |
| 20260507012044 | 60 | 242 | 1.7 | 1.7 | 0.00 | 0.00 | 0.00 | 71 | 1018.6 |
| 20260507011542 | 60 | 152 | 1.7 | 2.6 | 0.00 | 0.00 | 0.00 | 69 | 1018.5 |
| 20260507011038 | 62 | 250 | 3.5 | 4.3 | 0.00 | 0.00 | 0.00 | 68 | 1018.5 |
| 20260507010532 | 61 | 173 | 0.9 | 0.9 | 0.00 | 0.00 | 0.00 | 69 | 1018.6 |
| 20260507010029 | 61 | 148 | 0.9 | 0.9 | 0.00 | 0.00 | 0.00 | 69 | 1018.6 |
| 20260507005527 | 61 | 133 | 0.9 | 0.9 | 0.00 | 0.00 | 0.00 | 69 | 1018.6 |
| 20260507005023 | 61 | 214 | 1.7 | 1.7 | 0.00 | 0.00 | 0.00 | 69 | 1018.5 |
| 20260507004520 | 61 | 94 | 0.9 | 0.9 | 0.00 | 0.00 | 0.00 | 70 | 1018.8 |
| 20260507004018 | 60 | 264 | 2.6 | 2.6 | 0.00 | 0.00 | 0.00 | 71 | 1018.6 |
| 20260507003513 | 60 | 248 | 1.7 | 1.7 | 0.00 | 0.00 | 0.00 | 70 | 1018.5 |
| 20260507003008 | 60 | 104 | 1.7 | 1.7 | 0.00 | 0.00 | 0.00 | 70 | 1018.6 |
| 20260507002505 | 61 | 210 | 1.7 | 1.7 | 0.00 | 0.00 | 0.00 | 70 | 1018.5 |
| 20260507002001 | 61 | 164 | 2.6 | 2.6 | 0.00 | 0.00 | 0.00 | 70 | 1018.5 |
| 20260507001458 | 60 | 180 | 0.9 | 0.9 | 0.00 | 0.00 | 0.00 | 70 | 1018.6 |
| 20260507000955 | 61 | 255 | 1.7 | 1.7 | 0.00 | 0.00 | 0.00 | 69 | 1018.7 |
| 20260507000451 | 61 | 134 | 0.9 | 0.9 | 0.00 | 0.00 | 0.00 | 69 | 1018.5 |
| 20260506235946 | 61 | 128 | 0.0 | 0.0 | 0.00 | 0.00 | 0.00 | 69 | 1018.5 |
| 20260506235444 | 62 | 66 | 0.9 | 0.9 | 0.00 | 0.00 | 0.00 | 68 | 1018.6 |
| 20260506234940 | 61 | 56 | 0.9 | 0.9 | 0.00 | 0.00 | 0.00 | 68 | 1018.6 |
| 20260506234437 | 62 | 275 | 1.7 | 2.6 | 0.00 | 0.00 | 0.00 | 69 | 1018.6 |
| 20260506233935 | 62 | 194 | 0.0 | 0.9 | 0.00 | 0.00 | 0.00 | 68 | 1018.6 |
| 20260506233431 | 62 | 130 | 0.0 | 0.0 | 0.00 | 0.00 | 0.00 | 67 | 1018.7 |
| 20260506232928 | 62 | 22 | 0.9 | 0.9 | 0.00 | 0.00 | 0.00 | 68 | 1018.7 |
| 20260506232424 | 62 | 141 | 0.0 | 0.0 | 0.00 | 0.00 | 0.00 | 67 | 1018.7 |
| 20260506231920 | 64 | 117 | 0.9 | 0.9 | 0.00 | 0.00 | 0.00 | 66 | 1018.6 |
| 20260506231418 | 64 | 161 | 0.0 | 0.0 | 0.00 | 0.00 | 0.00 | 64 | 1018.6 |
| 20260506230915 | 64 | 143 | 1.7 | 1.7 | 0.00 | 0.00 | 0.00 | 64 | 1018.7 |
| 20260506230411 | 62 | 116 | 0.9 | 0.9 | 0.00 | 0.00 | 0.00 | 68 | 1018.7 |
| 20260506225908 | 62 | 255 | 5.2 | 7.0 | 0.00 | 0.00 | 0.00 | 67 | 1018.7 |
| 20260506225405 | 61 | 40 | 0.0 | 0.9 | 0.00 | 0.00 | 0.00 | 69 | 1018.6 |
| 20260506224902 | 61 | 189 | 0.0 | 0.9 | 0.00 | 0.00 | 0.00 | 69 | 1018.3 |
| 20260506224359 | 61 | 114 | 1.7 | 4.3 | 0.00 | 0.00 | 0.00 | 69 | 1018.6 |
| 20260506223855 | 60 | 142 | 4.3 | 5.2 | 0.00 | 0.00 | 0.00 | 70 | 1019.0 |
| 20260506223351 | 61 | 232 | 1.7 | 1.7 | 0.00 | 0.00 | 0.00 | 69 | 1018.9 |
| 20260506222848 | 60 | 119 | 0.0 | 0.0 | 0.00 | 0.00 | 0.00 | 69 | 1018.7 |
| 20260506222344 | 60 | 165 | 0.9 | 1.7 | 0.00 | 0.00 | 0.00 | 70 | 1018.8 |
| 20260506221842 | 60 | 223 | 0.9 | 1.7 | 0.00 | 0.00 | 0.00 | 70 | 1018.9 |
| 20260506221339 | 61 | 198 | 0.9 | 0.9 | 0.00 | 0.00 | 0.00 | 70 | 1019.0 |
| 20260506220837 | 61 | 198 | 1.7 | 1.7 | 0.00 | 0.00 | 0.00 | 69 | 1019.1 |
| 20260506220332 | 61 | 190 | 0.9 | 0.9 | 0.00 | 0.00 | 0.00 | 69 | 1019.0 |
| 20260506215829 | 61 | 93 | 0.0 | 0.9 | 0.00 | 0.00 | 0.00 | 69 | 1019.0 |
| 20260506215324 | 60 | 167 | 0.9 | 1.7 | 0.00 | 0.00 | 0.00 | 70 | 1018.9 |
| 20260506214821 | 61 | 357 | 0.9 | 0.9 | 0.00 | 0.00 | 0.00 | 71 | 1019.0 |
| 20260506214317 | 60 | 159 | 0.0 | 0.0 | 0.00 | 0.00 | 0.00 | 72 | 1019.0 |
| 20260506213816 | 60 | 218 | 0.9 | 1.7 | 0.00 | 0.00 | 0.00 | 72 | 1018.9 |
| 20260506213313 | 60 | 177 | 0.9 | 0.9 | 0.00 | 0.00 | 0.00 | 74 | 1019.0 |
| 20260506212810 | 59 | 155 | 0.9 | 0.9 | 0.00 | 0.00 | 0.00 | 73 | 1018.9 |
| 20260506212307 | 59 | 203 | 1.7 | 1.7 | 0.00 | 0.00 | 0.00 | 74 | 1018.9 |
| 20260506211801 | 59 | 232 | 0.9 | 1.7 | 0.00 | 0.00 | 0.00 | 74 | 1019.2 |
| 20260506211257 | 59 | 206 | 3.5 | 4.3 | 0.00 | 0.00 | 0.00 | 74 | 1018.9 |
| 20260506210754 | 59 | 256 | 1.7 | 2.6 | 0.00 | 0.00 | 0.00 | 75 | 1018.9 |
| 20260506210251 | 59 | 178 | 0.9 | 0.9 | 0.00 | 0.00 | 0.00 | 75 | 1018.9 |
| 20260506205748 | 58 | 188 | 0.9 | 0.9 | 0.00 | 0.00 | 0.00 | 75 | 1019.1 |
| 20260506205244 | 58 | 130 | 0.0 | 0.0 | 0.00 | 0.00 | 0.00 | 75 | 1019.1 |
| 20260506204741 | 58 | 237 | 2.6 | 2.6 | 0.00 | 0.00 | 0.00 | 75 | 1018.8 |
| 20260506204239 | 59 | 110 | 0.9 | 1.7 | 0.00 | 0.00 | 0.00 | 75 | 1018.8 |
| 20260506203736 | 58 | 147 | 3.5 | 4.3 | 0.00 | 0.00 | 0.00 | 77 | 1018.8 |
| 20260506203233 | 58 | 239 | 0.9 | 0.9 | 0.00 | 0.00 | 0.00 | 76 | 1018.9 |
| 20260506202731 | 58 | 208 | 2.6 | 2.6 | 0.00 | 0.00 | 0.00 | 77 | 1019.0 |
| 20260506202227 | 58 | 157 | 0.9 | 0.9 | 0.00 | 0.00 | 0.00 | 77 | 1018.8 |
| 20260506201724 | 58 | 236 | 2.6 | 4.3 | 0.00 | 0.00 | 0.00 | 76 | 1018.9 |
| 20260506201220 | 58 | 225 | 3.5 | 5.2 | 0.00 | 0.00 | 0.00 | 78 | 1018.6 |
| 20260506200718 | 58 | 62 | 0.9 | 0.9 | 0.00 | 0.00 | 0.00 | 79 | 1018.9 |
| 20260506200214 | 58 | 137 | 1.7 | 1.7 | 0.00 | 0.00 | 0.00 | 80 | 1018.9 |
| 20260506195710 | 57 | 195 | 4.3 | 6.1 | 0.00 | 0.00 | 0.00 | 80 | 1018.9 |
| 20260506195207 | 57 | 168 | 1.7 | 4.3 | 0.00 | 0.00 | 0.00 | 80 | 1018.8 |
| 20260506194659 | 57 | 104 | 0.9 | 1.7 | 0.00 | 0.00 | 0.00 | 81 | 1018.8 |
| 20260506194155 | 57 | 111 | 1.7 | 1.7 | 0.00 | 0.00 | 0.00 | 81 | 1018.7 |
| 20260506193653 | 57 | 138 | 2.6 | 2.6 | 0.00 | 0.00 | 0.00 | 82 | 1018.9 |
| 20260506193149 | 57 | 146 | 3.5 | 5.2 | 0.00 | 0.00 | 0.00 | 82 | 1018.8 |
| 20260506192646 | 57 | 218 | 4.3 | 5.2 | 0.00 | 0.00 | 0.00 | 81 | 1018.7 |
| 20260506192142 | 57 | 172 | 1.7 | 1.7 | 0.00 | 0.00 | 0.00 | 81 | 1018.7 |
| 20260506191640 | 57 | 187 | 0.9 | 1.7 | 0.00 | 0.00 | 0.00 | 82 | 1018.9 |
| 20260506191135 | 57 | 136 | 2.6 | 2.6 | 0.00 | 0.00 | 0.00 | 82 | 1018.7 |
| 20260506190633 | 57 | 165 | 0.9 | 0.9 | 0.00 | 0.00 | 0.00 | 83 | 1018.8 |
| 20260506190130 | 57 | 178 | 0.9 | 1.7 | 0.00 | 0.00 | 0.00 | 84 | 1018.7 |
| 20260506185627 | 56 | 165 | 2.6 | 5.2 | 0.00 | 0.00 | 0.00 | 83 | 1018.8 |
| 20260506185123 | 56 | 106 | 6.1 | 7.0 | 0.00 | 0.00 | 0.00 | 83 | 1019.0 |
| 20260506184620 | 56 | 171 | 2.6 | 2.6 | 0.00 | 0.00 | 0.00 | 84 | 1019.0 |
| 20260506184118 | 56 | 138 | 3.5 | 4.3 | 0.00 | 0.00 | 0.00 | 84 | 1018.8 |
| 20260506183614 | 56 | 220 | 0.9 | 0.9 | 0.00 | 0.00 | 0.00 | 84 | 1018.8 |
| 20260506183110 | 55 | 167 | 1.7 | 1.7 | 0.00 | 0.00 | 0.00 | 85 | 1018.6 |
| 20260506182608 | 55 | 146 | 2.6 | 2.6 | 0.00 | 0.00 | 0.00 | 85 | 1018.5 |
| 20260506182105 | 56 | 123 | 6.1 | 7.0 | 0.00 | 0.00 | 0.00 | 84 | 1018.6 |
| 20260506181603 | 56 | 119 | 1.7 | 1.7 | 0.00 | 0.00 | 0.00 | 85 | 1018.7 |
| 20260506181059 | 56 | 175 | 3.5 | 5.2 | 0.00 | 0.00 | 0.00 | 85 | 1018.8 |
| 20260506180556 | 55 | 154 | 0.9 | 1.7 | 0.00 | 0.00 | 0.00 | 85 | 1018.8 |
| 20260506180052 | 55 | 132 | 0.9 | 0.9 | 0.00 | 0.00 | 0.00 | 85 | 1018.5 |
| 20260506175549 | 55 | 152 | 0.0 | 0.0 | 0.00 | 0.00 | 0.00 | 86 | 1018.7 |
| 20260506175045 | 55 | 326 | 0.9 | 0.9 | 0.00 | 0.00 | 0.00 | 85 | 1018.7 |
| 20260506174544 | 55 | 226 | 2.6 | 2.6 | 0.00 | 0.00 | 0.00 | 85 | 1018.6 |
| 20260506174039 | 55 | 94 | 2.6 | 4.3 | 0.00 | 0.00 | 0.00 | 85 | 1018.5 |
| 20260506173538 | 55 | 155 | 0.0 | 0.0 | 0.00 | 0.00 | 0.00 | 86 | 1018.5 |
| 20260506173034 | 55 | 193 | 1.7 | 1.7 | 0.00 | 0.00 | 0.00 | 86 | 1018.6 |
| 20260506172532 | 55 | 188 | 0.0 | 0.9 | 0.00 | 0.00 | 0.00 | 86 | 1018.6 |
| 20260506172028 | 54 | 108 | 2.6 | 2.6 | 0.00 | 0.00 | 0.00 | 87 | 1018.6 |
| 20260506171525 | 54 | 205 | 1.7 | 1.7 | 0.00 | 0.00 | 0.00 | 87 | 1018.6 |
| 20260506171023 | 54 | 281 | 0.9 | 1.7 | 0.00 | 0.00 | 0.00 | 87 | 1018.7 |
| 20260506170520 | 54 | 216 | 1.7 | 1.7 | 0.00 | 0.00 | 0.00 | 87 | 1018.7 |
| 20260506170012 | 54 | 132 | 3.5 | 5.2 | 0.00 | 0.00 | 0.00 | 87 | 1018.5 |
| 20260506165510 | 54 | 85 | 0.9 | 1.7 | 0.00 | 0.00 | 0.00 | 87 | 1018.6 |
| 20260506165006 | 54 | 150 | 0.0 | 0.9 | 0.00 | 0.00 | 0.00 | 87 | 1018.5 |
| 20260506164503 | 54 | 276 | 2.6 | 2.6 | 0.00 | 0.00 | 0.00 | 87 | 1018.4 |
| 20260506164001 | 54 | 129 | 0.9 | 1.7 | 0.00 | 0.00 | 0.00 | 87 | 1018.5 |
| 20260506163455 | 54 | 175 | 0.0 | 0.0 | 0.00 | 0.00 | 0.00 | 88 | 1018.2 |
| 20260506162949 | 54 | 238 | 1.7 | 1.7 | 0.00 | 0.00 | 0.00 | 88 | 1018.2 |
| 20260506162448 | 54 | 219 | 0.0 | 0.9 | 0.00 | 0.00 | 0.00 | 89 | 1018.2 |
| 20260506161939 | 54 | 253 | 1.7 | 1.7 | 0.00 | 0.00 | 0.00 | 88 | 1018.1 |
| 20260506161437 | 54 | 158 | 0.0 | 0.9 | 0.00 | 0.00 | 0.00 | 88 | 1018.2 |
| 20260506160929 | 53 | 154 | 0.0 | 0.0 | 0.00 | 0.00 | 0.00 | 89 | 1018.3 |
| 20260506160426 | 53 | 200 | 0.0 | 0.9 | 0.00 | 0.00 | 0.00 | 88 | 1018.3 |
| 20260506155923 | 54 | 222 | 0.9 | 0.9 | 0.00 | 0.00 | 0.00 | 89 | 1018.2 |
| 20260506155420 | 54 | 196 | 0.9 | 0.9 | 0.00 | 0.00 | 0.00 | 89 | 1018.4 |
| 20260506153542 | 53 | 145 | 2.6 | 2.6 | 0.00 | 0.00 | 0.00 | 89 | 1018.0 |
| 20260506153040 | 53 | 166 | 0.9 | 1.7 | 0.00 | 0.00 | 0.00 | 89 | 1018.0 |
| 20260506152537 | 53 | 214 | 1.7 | 1.7 | 0.00 | 0.00 | 0.00 | 88 | 1018.3 |
| 20260506152035 | 53 | 168 | 0.0 | 0.9 | 0.00 | 0.00 | 0.00 | 89 | 1018.2 |
| 20260506151532 | 53 | 184 | 0.9 | 1.7 | 0.00 | 0.00 | 0.00 | 89 | 1018.3 |
| 20260506151029 | 53 | 258 | 1.7 | 1.7 | 0.00 | 0.00 | 0.00 | 89 | 1018.2 |
| 20260506150526 | 53 | 82 | 0.0 | 0.9 | 0.00 | 0.00 | 0.00 | 89 | 1018.5 |
| 20260506150023 | 53 | 128 | 0.0 | 0.9 | 0.00 | 0.00 | 0.00 | 89 | 1018.4 |
| 20260506145519 | 53 | 222 | 0.9 | 2.6 | 0.00 | 0.00 | 0.00 | 89 | 1018.6 |
| 20260506145017 | 53 | 254 | 0.9 | 1.7 | 0.00 | 0.00 | 0.00 | 89 | 1018.1 |
| 20260506144513 | 53 | 150 | 2.6 | 2.6 | 0.00 | 0.00 | 0.00 | 89 | 1017.8 |
| 20260506144011 | 53 | 143 | 0.9 | 0.9 | 0.00 | 0.00 | 0.00 | 89 | 1018.0 |
| 20260506143509 | 53 | 131 | 1.7 | 1.7 | 0.00 | 0.00 | 0.00 | 89 | 1017.7 |
| 20260506143007 | 53 | 182 | 2.6 | 2.6 | 0.00 | 0.00 | 0.00 | 90 | 1018.0 |
| 20260506142504 | 53 | 149 | 2.6 | 2.6 | 0.00 | 0.00 | 0.00 | 90 | 1018.0 |
| 20260506142002 | 53 | 133 | 1.7 | 2.6 | 0.00 | 0.00 | 0.00 | 90 | 1018.1 |
| 20260506141500 | 53 | 124 | 2.6 | 5.2 | 0.00 | 0.00 | 0.00 | 90 | 1017.9 |
| 20260506140958 | 53 | 142 | 1.7 | 1.7 | 0.00 | 0.00 | 0.00 | 90 | 1017.7 |
| 20260506140455 | 53 | 232 | 0.9 | 1.7 | 0.00 | 0.00 | 0.00 | 90 | 1018.0 |
| 20260506135951 | 53 | 143 | 4.3 | 6.1 | 0.00 | 0.00 | 0.00 | 91 | 1017.4 |
| 20260506135449 | 53 | 175 | 1.7 | 1.7 | 0.00 | 0.00 | 0.00 | 90 | 1018.0 |
| 20260506134944 | 53 | 186 | 1.7 | 2.6 | 0.00 | 0.00 | 0.00 | 90 | 1018.0 |
| 20260506134441 | 53 | 200 | 0.9 | 1.7 | 0.00 | 0.00 | 0.00 | 90 | 1017.9 |
| 20260506133938 | 53 | 129 | 0.9 | 1.7 | 0.00 | 0.00 | 0.00 | 90 | 1017.9 |
| 20260506133435 | 53 | 154 | 0.9 | 0.9 | 0.00 | 0.00 | 0.00 | 90 | 1017.9 |
| 20260506132931 | 53 | 174 | 0.0 | 0.0 | 0.00 | 0.00 | 0.00 | 90 | 1017.9 |
| 20260506132429 | 53 | 172 | 0.9 | 0.9 | 0.00 | 0.00 | 0.00 | 90 | 1017.5 |
| 20260506131926 | 53 | 179 | 0.0 | 0.9 | 0.00 | 0.00 | 0.00 | 90 | 1017.3 |
| 20260506131422 | 53 | 166 | 2.6 | 2.6 | 0.00 | 0.00 | 0.00 | 90 | 1017.3 |
| 20260506130920 | 53 | 133 | 1.7 | 1.7 | 0.00 | 0.00 | 0.00 | 90 | 1017.3 |
| 20260506130416 | 53 | 133 | 1.7 | 1.7 | 0.00 | 0.00 | 0.00 | 91 | 1017.3 |
| 20260506125914 | 53 | 149 | 1.7 | 1.7 | 0.00 | 0.00 | 0.00 | 91 | 1017.2 |
| 20260506125412 | 53 | 144 | 0.9 | 1.7 | 0.00 | 0.00 | 0.00 | 91 | 1017.5 |
| 20260506124910 | 53 | 184 | 0.9 | 1.7 | 0.00 | 0.00 | 0.00 | 92 | 1017.4 |
| 20260506124407 | 53 | 124 | 0.9 | 1.7 | 0.00 | 0.00 | 0.00 | 92 | 1017.3 |
| 20260506123905 | 53 | 180 | 0.9 | 0.9 | 0.00 | 0.00 | 0.00 | 92 | 1017.3 |
| 20260506123403 | 53 | 167 | 0.9 | 0.9 | 0.00 | 0.00 | 0.00 | 92 | 1017.2 |
| 20260506122900 | 53 | 160 | 0.9 | 0.9 | 0.00 | 0.00 | 0.00 | 92 | 1017.2 |
| 20260506122356 | 53 | 135 | 0.9 | 0.9 | 0.00 | 0.00 | 0.00 | 92 | 1017.2 |
| 20260506121855 | 53 | 185 | 0.9 | 0.9 | 0.00 | 0.00 | 0.00 | 92 | 1017.4 |
| 20260506121352 | 53 | 147 | 0.9 | 0.9 | 0.00 | 0.00 | 0.00 | 92 | 1017.2 |
| 20260506120848 | 53 | 151 | 1.7 | 1.7 | 0.00 | 0.00 | 0.00 | 92 | 1017.2 |
| 20260506120346 | 53 | 174 | 2.6 | 4.3 | 0.00 | 0.00 | 0.00 | 92 | 1017.0 |
| 20260506115843 | 53 | 160 | 2.6 | 2.6 | 0.00 | 0.00 | 0.00 | 93 | 1017.0 |
| 20260506115342 | 53 | 151 | 2.6 | 2.6 | 0.00 | 0.00 | 0.00 | 93 | 1016.8 |
| 20260506114839 | 53 | 174 | 1.7 | 1.7 | 0.00 | 0.00 | 0.00 | 93 | 1016.9 |
| 20260506114337 | 53 | 159 | 2.6 | 2.6 | 0.00 | 0.00 | 0.00 | 93 | 1017.0 |
| 20260506113835 | 53 | 157 | 1.7 | 1.7 | 0.00 | 0.00 | 0.00 | 93 | 1017.0 |
| 20260506113332 | 53 | 201 | 0.9 | 0.9 | 0.00 | 0.00 | 0.00 | 93 | 1017.2 |
| 20260506112829 | 53 | 147 | 1.7 | 1.7 | 0.00 | 0.00 | 0.00 | 93 | 1017.2 |
| 20260506112326 | 53 | 143 | 0.9 | 0.9 | 0.00 | 0.00 | 0.00 | 92 | 1017.0 |
| 20260506111823 | 53 | 160 | 0.9 | 1.7 | 0.00 | 0.00 | 0.00 | 92 | 1017.0 |
| 20260506111322 | 53 | 191 | 0.9 | 0.9 | 0.00 | 0.00 | 0.00 | 92 | 1017.0 |
| 20260506110819 | 53 | 159 | 1.7 | 1.7 | 0.00 | 0.00 | 0.00 | 91 | 1017.0 |
| 20260506110316 | 53 | 191 | 0.9 | 0.9 | 0.00 | 0.00 | 0.00 | 91 | 1017.0 |
| 20260506105812 | 54 | 157 | 0.9 | 0.9 | 0.00 | 0.00 | 0.00 | 90 | 1017.0 |